Latest Coastal Weather Observations for Port Pirie Airport AWS***

IDS60701

Issued at 10:11 am CDT Thursday 22 January 2015 (issued every 10 minutes, with the page automatically refreshed every 10 minutes)

About coastal observations | Map of coastal stations | Coastal observations for SA | Marine services | Other Formats
Station Details ID: 250006 Name: PORT PIRIE AERODROME AWS Lat: -33.23 Lon: 138.00 Height: 10.0 m
Data from the previous 72 hours. | See also: Recent months for locations in South Australia
Date/Time
CDT
Temp

°C
Wind Pressure Rain
since 9am
mm
Weather Cloud Vis
km
Sea
Height
m
Swell
Dir
 
Speed
knots
Gust
knots
hPa Trend Height
m
Period
s
Dir
22/09:30am 23.9 SSW 3 7 - - - - - - - - - -
22/08:00am 19.2 S 11 13 - - 0.2 - - - - - - -
22/07:30am 17.7 S 10 13 - - 0.2 - - - - - - -
22/07:00am 16.6 S 7 9 - - 0.2 - - - - - - -
22/06:30am 16.2 S 5 6 - - 0.2 - - - - - - -
22/06:00am 16.6 SSE 5 7 - - 0.2 - - - - - - -
22/05:30am 16.3 SE 5 7 - - 0.2 - - - - - - -
22/05:00am 16.1 SSE 4 6 - - 0.2 - - - - - - -
22/04:30am 16.3 S 4 5 - - 0.2 - - - - - - -
22/04:00am 16.2 SSW 5 6 - - 0.2 - - - - - - -
22/03:30am 16.6 S 3 5 - - 0.2 - - - - - - -
22/03:00am 16.6 S 5 5 - - 0.2 - - - - - - -
22/02:30am 17.3 SSW 2 3 - - 0.2 - - - - - - -
22/02:00am 17.6 SSW 5 8 - - 0.2 - - - - - - -
22/01:30am 18.5 S 7 10 - - 0.2 - - - - - - -
22/01:00am 18.7 SSE 7 10 - - 0.2 - - - - - - -
22/12:30am 19.3 SSE 8 13 - - 0.2 - - - - - - -
22/12:00am 19.8 SSE 10 15 - - 0.2 - - - - - - -
 
Date/Time
CDT
Temp

°C
Wind Pressure Rain
since 9am
mm
Weather Cloud Vis
km
Sea
Height
m
Swell
Dir
 
Speed
knots
Gust
knots
hPa Trend Height
m
Period
s
Dir
21/11:30pm 19.5 S 6 8 - - 0.2 - - - - - - -
21/11:00pm 20.2 S 6 8 - - 0.2 - - - - - - -
21/10:30pm 20.9 S 7 10 - - 0.2 - - - - - - -
21/10:00pm 21.6 S 8 10 - - 0.2 - - - - - - -
21/09:30pm 22.2 SSW 8 12 - - 0.2 - - - - - - -
21/09:00pm 22.1 SW 11 15 - - 0.2 - - - - - - -
21/08:30pm 22.4 SW 14 20 - - 0.2 - - - - - - -
21/08:00pm 22.7 SW 15 22 - - 0.2 - - - - - - -
21/07:30pm 23.2 SW 17 22 - - 0.2 - - - - - - -
21/07:00pm 24.4 SW 16 23 - - 0.2 - - - - - - -
21/06:30pm 24.3 SW 16 22 - - 0.2 - - - - - - -
21/06:00pm 25.5 SW 16 22 - - 0.2 - - - - - - -
21/05:30pm 26.1 SW 15 21 - - 0.2 - - - - - - -
21/05:00pm 26.1 SW 17 22 - - 0.2 - - - - - - -
21/04:30pm 25.9 SW 15 22 - - 0.2 - - - - - - -
21/04:00pm 25.8 SW 15 22 - - 0.2 - - - - - - -
21/03:30pm 25.0 SW 13 22 - - 0.2 - - - - - - -
21/03:00pm 25.6 SW 15 22 - - 0.2 - - - - - - -
21/02:30pm 25.9 SW 14 21 - - 0.2 - - - - - - -
21/02:00pm 26.0 SW 12 19 - - 0.2 - - - - - - -
21/01:30pm 26.1 SW 11 21 - - 0.2 - - - - - - -
21/01:00pm 25.7 SW 10 16 - - 0.2 - - - - - - -
21/12:30pm 24.5 SW 11 17 - - 0.2 - - - - - - -
21/12:00pm 24.2 SW 11 17 - - 0.2 Recent precip. - - - - - -
21/11:30am 24.4 S 10 15 - - 0.2 - - - - - - -
21/11:00am 23.7 SSW 10 16 - - 0.0 - - - - - - -
21/10:30am 21.7 SSW 11 17 - - 0.0 - - - - - - -
21/10:00am 21.3 S 13 17 - - 0.0 - - - - - - -
21/09:30am 21.1 S 13 17 - - 0.0 - - - - - - -
21/09:00am 20.5 S 14 17 - - 0.4 - - - - - - -
21/08:30am 19.3 S 14 19 - - 0.4 - - - - - - -
21/08:00am 18.7 S 12 16 - - 0.4 - - - - - - -
21/07:30am 18.3 S 13 17 - - 0.4 - - - - - - -
21/07:00am 18.0 S 13 16 - - 0.4 - - - - - - -
21/06:30am 18.1 S 13 17 - - 0.4 - - - - - - -
21/06:00am 18.4 SSW 17 21 - - 0.4 - - - - - - -
21/05:30am 19.1 SSW 10 17 - - 0.4 - - - - - - -
21/05:00am 19.1 SSW 11 15 - - 0.4 - - - - - - -
21/04:30am 18.9 SSW 7 9 - - 0.4 - - - - - - -
21/04:00am 19.1 SSW 9 12 - - 0.4 - - - - - - -
21/03:30am 19.0 SSW 7 10 - - 0.4 - - - - - - -
21/03:00am 18.9 SSW 7 9 - - 0.4 - - - - - - -
21/02:30am 18.8 SSW 6 8 - - 0.4 - - - - - - -
21/02:00am 19.3 SSW 10 13 - - 0.4 - - - - - - -
21/01:30am 19.7 SSW 8 11 - - 0.4 - - - - - - -
21/01:00am 19.1 S 5 10 - - 0.4 - - - - - - -
21/12:30am 20.3 SSE 7 10 - - 0.0 - - - - - - -
21/12:00am 20.5 S 7 9 - - 0.0 - - - - - - -
 
Date/Time
CDT
Temp

°C
Wind Pressure Rain
since 9am
mm
Weather Cloud Vis
km
Sea
Height
m
Swell
Dir
 
Speed
knots
Gust
knots
hPa Trend Height
m
Period
s
Dir
20/11:30pm 20.9 SSW 11 15 - - 0.0 - - - - - - -
20/11:00pm 21.0 SSW 9 12 - - 0.0 - - - - - - -
20/10:30pm 21.0 SSW 10 14 - - 0.0 - - - - - - -
20/10:00pm 21.4 SSW 13 17 - - 0.0 - - - - - - -
20/09:30pm 21.5 SSW 15 20 - - 0.0 - - - - - - -
20/09:00pm 21.7 SSW 14 18 - - 0.0 - - - - - - -
20/08:30pm 22.1 SSW 14 18 - - 0.0 - - - - - - -
20/08:00pm 22.4 SSW 14 20 - - 0.0 - - - - - - -
20/07:30pm 22.6 SSW 16 23 - - 0.0 - - - - - - -
20/07:00pm 22.4 SSW 19 25 - - 0.0 - - - - - - -
20/06:30pm 23.2 SSW 18 24 - - 0.0 - - - - - - -
20/06:00pm 23.3 SSW 19 25 - - 0.0 - - - - - - -
20/05:30pm 24.0 SW 19 25 - - 0.0 - - - - - - -
20/05:00pm 24.5 SSW 21 28 - - 0.0 - - - - - - -
20/04:30pm 24.3 SW 22 32 - - 0.0 - - - - - - -
20/04:28pm 24.6 SW 21 32 - - 0.0 - - - - - - -
20/04:00pm 24.8 SW 21 26 - - 0.0 - - - - - - -
20/03:30pm 27.6 SW 21 29 - - 0.0 - - - - - - -
20/03:00pm 26.6 SW 21 29 - - 0.0 - - - - - - -
20/02:30pm 26.8 SW 19 27 - - 0.0 - - - - - - -
20/02:00pm 27.7 SW 18 29 - - 0.0 - - - - - - -
20/01:42pm 30.1 WSW 15 26 - - 0.0 - - - - - - -
20/01:30pm 32.5 WSW 11 20 - - 0.0 - - - - - - -
20/01:00pm 33.0 W 11 22 - - 0.0 - - - - - - -
20/12:30pm 32.8 NNW 13 20 - - 0.0 - - - - - - -
20/12:00pm 32.1 N 15 25 - - 0.0 - - - - - - -
20/11:30am 31.0 N 19 30 - - 0.0 - - - - - - -
20/11:16am 31.0 N 15 28 - - 0.0 - - - - - - -
20/11:00am 29.9 NNW 12 19 - - 0.0 - - - - - - -
20/10:30am 28.9 N 13 21 - - 0.0 - - - - - - -
20/10:00am 28.6 N 12 19 - - 0.0 - - - - - - -
20/09:30am 27.8 N 8 12 - - 0.0 - - - - - - -
20/09:00am 27.7 N 10 20 - - 0.0 - - - - - - -
20/08:30am 27.4 NNW 7 11 - - 0.0 - - - - - - -
20/08:00am 27.9 N 7 12 - - 0.0 - - - - - - -
20/07:30am 27.8 NNE 11 17 - - 0.0 - - - - - - -
20/07:00am 27.6 NNE 11 16 - - 0.0 - - - - - - -
20/06:30am 27.6 NNE 12 18 - - 0.0 - - - - - - -
20/06:00am 27.4 NNE 13 18 - - 0.0 - - - - - - -
20/05:30am 27.6 NNE 12 18 - - 0.0 - - - - - - -
20/05:00am 28.1 NNE 11 17 - - 0.0 - - - - - - -
20/04:30am 28.1 NNE 10 14 - - 0.0 - - - - - - -
20/04:00am 27.9 NNE 11 15 - - 0.0 - - - - - - -
20/03:30am 27.9 NNE 10 15 - - 0.0 - - - - - - -
20/03:00am 28.0 NNE 11 17 - - 0.0 - - - - - - -
20/02:30am 28.1 NE 11 16 - - 0.0 - - - - - - -
20/02:00am 27.9 NNE 8 12 - - 0.0 - - - - - - -
20/01:30am 28.1 NE 10 13 - - 0.0 - - - - - - -
20/01:00am 27.9 NE 7 10 - - 0.0 - - - - - - -
20/12:30am 25.0 ENE 3 5 - - 0.0 - - - - - - -
20/12:00am 25.2 NE 3 3 - - 0.0 - - - - - - -
 
Date/Time
CDT
Temp

°C
Wind Pressure Rain
since 9am
mm
Weather Cloud Vis
km
Sea
Height
m
Swell
Dir
 
Speed
knots
Gust
knots
hPa Trend Height
m
Period
s
Dir
19/11:30pm 23.5 ESE 3 6 - - 0.0 - - - - - - -
19/11:00pm 23.9 ESE 5 6 - - 0.0 - - - - - - -
19/10:30pm 23.8 ESE 5 6 - - 0.0 - - - - - - -
19/10:00pm 24.2 ESE 4 5 - - 0.0 - - - - - - -
19/09:30pm 24.6 SE 5 5 - - 0.0 - - - - - - -
19/09:00pm 26.3 E 3 3 - - 0.0 - - - - - - -
19/08:30pm 28.0 ENE 3 4 - - 0.0 - - - - - - -
19/08:00pm 30.5 NE 4 5 - - 0.0 - - - - - - -
19/07:30pm 31.4 ENE 3 5 - - 0.0 - - - - - - -
19/07:00pm 32.2 ENE 3 6 - - 0.0 - - - - - - -
19/06:30pm 32.5 SW 2 5 - - 0.0 - - - - - - -
19/06:00pm 32.3 N 3 5 - - 0.0 - - - - - - -
19/05:30pm 31.9 NNW 4 8 - - 0.0 - - - - - - -
19/05:00pm 31.6 NNW 5 10 - - 0.0 - - - - - - -
19/04:30pm 32.5 WNW 4 12 - - 0.0 - - - - - - -
19/04:00pm 32.3 N 3 9 - - 0.0 - - - - - - -
19/03:30pm 31.2 NW 4 10 - - 0.0 - - - - - - -
19/03:00pm 31.0 NNW 3 10 - - 0.0 - - - - - - -
19/02:30pm 30.2 N 6 10 - - 0.0 - - - - - - -
19/02:00pm 30.1 NW 4 10 - - 0.0 - - - - - - -
19/01:30pm 30.0 NNW 6 11 - - 0.0 - - - - - - -
19/01:00pm 29.9 N 5 10 - - 0.0 - - - - - - -
19/12:30pm 29.4 N 6 11 - - 0.0 - - - - - - -
19/12:00pm 28.1 N 6 12 - - 0.0 - - - - - - -
19/11:30am 28.4 N 8 13 - - 0.0 - - - - - - -
19/11:00am 27.8 NNE 10 14 - - 0.0 - - - - - - -
19/10:30am 26.9 N 8 13 - - 0.0 - - - - - - -

Other Formats:

Comma delimited format used in spreadsheet applications
http://www.bom.gov.au/fwo/IDS60701/IDS60701.99001.axf

JavaScript Object Notation format (JSON) in row-major order
http://www.bom.gov.au/fwo/IDS60701/IDS60701.99001.json